Crawford, TN

1:15 AM CDT on May 07, 2015 (GMT -0500)
Cumberland Cove | | Change Station
CLOSE
Current Station
Personal Weather Station
Location: Monterey, TN
Elevation: 1863 ft
Nearby Weather Stations

Elev 1863 ft 36.07 °N, 85.24 °W | Updated 1 minute ago

Mostly Cloudy
Mostly Cloudy
60.1 °F
Feels Like 60.1 °F
N
0.0
Wind Variable Wind from North
Gusts 0.0 mph

Today
High -- | Low -- °F
--% Chance of Precip.
Yesterday
High -- | Low -- °F
Precip. -- in
5:41 AM 7:33 PM
Waning Gibbous, 90% visible
Pressure 30.12 in
Visibility 5.0 miles
Clouds Overcast 7000 ft
Dew Point 56 °F
Humidity 88%
Rainfall 0.00 in
Snow Depth Not available.
UV 0.0 out of 12
Pollen 8.10 out of 12
Air Quality Not available.
Flu Activity Sporadic
METAR KCSV 070453Z AUTO 00000KT 5SM HZ OVC070 19/11 A3017 RMK AO2 SLP197 T01940111

More Conditions Fewer Conditions

Pressure 30.12 in
Visibility 5.0 miles
Clouds Overcast 7000 ft
Dew Point 56 °F
Humidity 88%
Rainfall 0.00 in
Snow Depth Not available.
UV 0.0 out of 12
Pollen 8.10 out of 12
Air Quality Not available.
Flu Activity Sporadic
METAR KCSV 070453Z AUTO 00000KT 5SM HZ OVC070 19/11 A3017 RMK AO2 SLP197 T01940111

More Conditions Fewer Conditions

10-Day Weather Forecast

Almanac

Astronomy

May. 07, 2015 Rise Set
Actual Time
Civil Twilight
Nautical Twilight
Astronomical Twilight
Moon
Length of Visible Light
Length of Day
Tomorrow will be .
, % of the Moon is Illuminated

Today's Extremes

State Highs State Lows

Community

WunderPhotos

Upload Photos

1,819,126 photos uploaded!

WunderBlogs® & News

Nearby

Air Quality

  Air Quality AQ Index Pollutant
Not available.

Snow Depth

Station Depth Elevation

Earthquake Activity

City Distance Mag. Time & Date
Minimum magnitude displayed is 2.5.

Coastal Water Temperatures

Place Temperature

Stations

Nearby Weather Stations

Station Location Temp. Windchill Dew Point Humidity Wind Precip. Elev Updated Type